Time;durP1;ratioP1;P1;durP2;ratioP2;P2;SDS_P1;SDS_P2;PMS_P1;PMS_P2;Temp;Humidity;BMP_temperature;BMP_pressure;BME280_temperature;BME280_humidity;BME280_pressure;Samples;Min_cycle;Max_cycle;Signal;HPM_P1;HPM_P2
2022/03/14 00:01:30;;;;;;;2.28;0.50;;;;;;;;;;4213165;28;20521;-41
2022/03/14 00:03:41;;;;;;;1.75;0.70;;;;;;;;;;4212627;28;20093;-40
2022/03/14 00:05:42;;;;;;;1.35;0.70;;;;;;;;;;4212800;28;20564;-41
2022/03/14 00:07:44;;;;;;;1.45;0.60;;;;;;;;;;4212780;28;20059;-41
2022/03/14 00:09:45;;;;;;;0.65;0.65;;;;;;;;;;4212501;28;20572;-43
2022/03/14 00:11:46;;;;;;;0.40;0.40;;;;;;;;;;4213030;28;20044;-41
2022/03/14 00:13:47;;;;;;;1.10;0.60;;;;;;;;;;4212958;28;20158;-42
2022/03/14 00:15:48;;;;;;;0.50;0.43;;;;;;;;;;4211674;28;20120;-42
2022/03/14 00:17:49;;;;;;;1.10;0.68;;;;;;;;;;4212470;28;20044;-41
2022/03/14 00:19:50;;;;;;;0.82;0.50;;;;;;;;;;4211431;28;20052;-42
2022/03/14 00:21:51;;;;;;;0.95;0.60;;;;;;;;;;4212443;28;20095;-41
2022/03/14 00:23:57;;;;;;;1.95;0.40;;;;;;;;;;4212751;28;20056;-40
2022/03/14 00:25:58;;;;;;;0.70;0.55;;;;;;;;;;4212680;28;20044;-42
2022/03/14 00:27:59;;;;;;;0.80;0.60;;;;;;;;;;4212745;28;20056;-41
2022/03/14 00:30:00;;;;;;;0.95;0.70;;;;;;;;;;4212886;28;20152;-41
2022/03/14 00:32:01;;;;;;;1.63;0.80;;;;;;;;;;4213683;28;20063;-40
2022/03/14 00:34:02;;;;;;;0.52;0.50;;;;;;;;;;4216330;28;20102;-42
2022/03/14 00:36:04;;;;;;;0.90;0.60;;;;;;;;;;4215883;28;20173;-41
2022/03/14 00:38:05;;;;;;;0.60;0.45;;;;;;;;;;4215868;28;20165;-41
2022/03/14 00:40:07;;;;;;;1.92;0.60;;;;;;;;;;4215968;28;20134;-42
2022/03/14 00:42:09;;;;;;;0.85;0.60;;;;;;;;;;4215799;28;20048;-40
2022/03/14 00:44:12;;;;;;;1.13;0.80;;;;;;;;;;4215799;28;20101;-41
2022/03/14 00:46:16;;;;;;;0.68;0.50;;;;;;;;;;4216123;28;20090;-41
2022/03/14 00:48:17;;;;;;;0.68;0.50;;;;;;;;;;4215294;28;20048;-43
2022/03/14 00:50:18;;;;;;;0.93;0.60;;;;;;;;;;4215739;28;20457;-41
2022/03/14 00:52:19;;;;;;;1.02;0.50;;;;;;;;;;4215837;28;20083;-46
2022/03/14 00:54:24;;;;;;;0.60;0.50;;;;;;;;;;4215707;28;20515;-42
2022/03/14 00:56:25;;;;;;;0.80;0.60;;;;;;;;;;4215911;28;20083;-42
2022/03/14 00:58:26;;;;;;;1.02;0.77;;;;;;;;;;4215587;28;20109;-40
2022/03/14 01:00:27;;;;;;;1.05;0.70;;;;;;;;;;4215608;28;20174;-42
2022/03/14 01:02:28;;;;;;;2.45;0.60;;;;;;;;;;4215404;28;20052;-40
2022/03/14 01:04:29;;;;;;;0.77;0.50;;;;;;;;;;4215711;28;20478;-41
2022/03/14 01:06:30;;;;;;;0.88;0.70;;;;;;;;;;4215749;28;20161;-42
2022/03/14 01:08:31;;;;;;;1.58;0.88;;;;;;;;;;4214205;28;20052;-41
2022/03/14 01:10:32;;;;;;;0.60;0.60;;;;;;;;;;4215143;28;20193;-41
2022/03/14 01:12:33;;;;;;;1.33;0.70;;;;;;;;;;4215478;28;20074;-42
2022/03/14 01:14:35;;;;;;;1.20;0.85;;;;;;;;;;4215662;28;20083;-41
2022/03/14 01:16:37;;;;;;;1.95;0.60;;;;;;;;;;4215565;28;20052;-41
2022/03/14 01:18:38;;;;;;;0.98;0.60;;;;;;;;;;4214965;28;20085;-41
2022/03/14 01:20:39;;;;;;;0.60;0.40;;;;;;;;;;4215328;28;20498;-41
2022/03/14 01:22:40;;;;;;;0.73;0.50;;;;;;;;;;4213954;28;20391;-41
2022/03/14 01:24:43;;;;;;;1.42;0.75;;;;;;;;;;4215257;28;20054;-43
2022/03/14 01:26:44;;;;;;;1.02;0.85;;;;;;;;;;4213883;28;20536;-42
2022/03/14 01:28:45;;;;;;;1.50;0.85;;;;;;;;;;4215177;28;20048;-43
2022/03/14 01:30:46;;;;;;;0.68;0.50;;;;;;;;;;4215170;28;20384;-41
2022/03/14 01:32:47;;;;;;;0.70;0.50;;;;;;;;;;4214784;28;20090;-41
2022/03/14 01:34:48;;;;;;;0.63;0.40;;;;;;;;;;4215117;28;20479;-41
2022/03/14 01:36:49;;;;;;;1.45;0.75;;;;;;;;;;4214995;28;20070;-43
2022/03/14 01:38:50;;;;;;;0.70;0.60;;;;;;;;;;4215054;28;20052;-44
2022/03/14 01:40:51;;;;;;;1.65;1.05;;;;;;;;;;4215064;28;20052;-41
2022/03/14 01:42:52;;;;;;;1.88;0.80;;;;;;;;;;4213349;28;20113;-41
2022/03/14 01:44:53;;;;;;;1.95;0.80;;;;;;;;;;4214920;28;20067;-41
2022/03/14 01:46:55;;;;;;;1.58;0.73;;;;;;;;;;4214555;28;20096;-41
2022/03/14 01:48:56;;;;;;;1.65;0.80;;;;;;;;;;4215169;28;20052;-41
2022/03/14 01:51:00;;;;;;;1.05;0.88;;;;;;;;;;4214776;28;20457;-41
2022/03/14 01:53:01;;;;;;;0.63;0.55;;;;;;;;;;4215024;28;20097;-41
2022/03/14 01:55:02;;;;;;;1.13;0.75;;;;;;;;;;4214722;28;20120;-41
2022/03/14 01:57:07;;;;;;;1.33;0.88;;;;;;;;;;4214573;28;20699;-41
2022/03/14 01:59:09;;;;;;;1.38;0.85;;;;;;;;;;4214745;28;20044;-41
2022/03/14 02:01:10;;;;;;;0.95;0.57;;;;;;;;;;4214945;28;20055;-41
2022/03/14 02:03:10;;;;;;;1.20;0.90;;;;;;;;;;4214350;28;20449;-40
2022/03/14 02:05:12;;;;;;;0.90;0.70;;;;;;;;;;4214753;28;20067;-42
2022/03/14 02:07:12;;;;;;;0.73;0.55;;;;;;;;;;4213225;28;20051;-44
2022/03/14 02:09:13;;;;;;;0.70;0.70;;;;;;;;;;4214466;28;20059;-41
2022/03/14 02:11:14;;;;;;;0.82;0.70;;;;;;;;;;4214365;28;20052;-41
2022/03/14 02:13:15;;;;;;;1.23;0.73;;;;;;;;;;4214316;28;20095;-42
2022/03/14 02:15:16;;;;;;;0.98;0.60;;;;;;;;;;4214423;28;20063;-41
2022/03/14 02:17:20;;;;;;;0.63;0.60;;;;;;;;;;4213909;28;20116;-41
2022/03/14 02:19:22;;;;;;;1.17;0.77;;;;;;;;;;4214623;28;20044;-41
2022/03/14 02:21:23;;;;;;;2.45;0.82;;;;;;;;;;4214386;28;20060;-42
2022/03/14 02:23:24;;;;;;;2.03;1.10;;;;;;;;;;4214458;28;20143;-41
2022/03/14 02:25:25;;;;;;;1.23;0.73;;;;;;;;;;4214231;28;20091;-41
2022/03/14 02:27:26;;;;;;;1.67;0.80;;;;;;;;;;4214505;28;20081;-40
2022/03/14 02:29:27;;;;;;;0.90;0.75;;;;;;;;;;4214507;28;20136;-41
2022/03/14 02:31:28;;;;;;;0.85;0.68;;;;;;;;;;4212977;28;20043;-42
2022/03/14 02:33:29;;;;;;;1.52;0.85;;;;;;;;;;4213972;28;20054;-42
2022/03/14 02:35:31;;;;;;;1.42;1.02;;;;;;;;;;4214378;28;20056;-41
2022/03/14 02:37:32;;;;;;;0.90;0.60;;;;;;;;;;4213956;28;20394;-41
2022/03/14 02:39:34;;;;;;;1.65;0.80;;;;;;;;;;4212742;28;20159;-42
2022/03/14 02:41:36;;;;;;;1.35;0.60;;;;;;;;;;4213965;28;20415;-42
2022/03/14 02:43:37;;;;;;;1.00;0.70;;;;;;;;;;4213946;28;20047;-42
2022/03/14 02:45:37;;;;;;;1.00;0.73;;;;;;;;;;4212622;28;20046;-41
2022/03/14 02:47:38;;;;;;;0.70;0.60;;;;;;;;;;4213572;28;20536;-41
2022/03/14 02:49:39;;;;;;;1.27;0.90;;;;;;;;;;4214147;28;20091;-42
2022/03/14 02:51:43;;;;;;;1.55;1.10;;;;;;;;;;4213799;28;20097;-41
2022/03/14 02:53:44;;;;;;;1.30;0.90;;;;;;;;;;4213264;28;20059;-42
2022/03/14 02:55:45;;;;;;;1.15;0.70;;;;;;;;;;4213441;28;20044;-40
2022/03/14 02:57:46;;;;;;;2.00;1.10;;;;;;;;;;4213625;28;20093;-41
2022/03/14 02:59:49;;;;;;;1.65;1.10;;;;;;;;;;4213611;28;20101;-41
2022/03/14 03:01:49;;;;;;;1.15;0.90;;;;;;;;;;4213278;28;20048;-41
2022/03/14 03:03:50;;;;;;;0.95;0.70;;;;;;;;;;4213713;28;20100;-42
2022/03/14 03:05:52;;;;;;;1.00;0.80;;;;;;;;;;4213933;28;20054;-40
2022/03/14 03:07:56;;;;;;;1.40;0.80;;;;;;;;;;4213567;28;20061;-43
2022/03/14 03:09:57;;;;;;;1.35;0.93;;;;;;;;;;4212021;28;20561;-42
2022/03/14 03:11:59;;;;;;;1.30;0.90;;;;;;;;;;4213456;28;20157;-41
2022/03/14 03:14:01;;;;;;;1.40;0.80;;;;;;;;;;4213403;28;20051;-41
2022/03/14 03:16:01;;;;;;;1.00;0.90;;;;;;;;;;4213444;28;20052;-40
2022/03/14 03:18:02;;;;;;;1.08;0.80;;;;;;;;;;4212957;28;20147;-41
2022/03/14 03:20:04;;;;;;;1.33;0.80;;;;;;;;;;4213375;28;20547;-43
2022/03/14 03:22:05;;;;;;;1.48;0.80;;;;;;;;;;4213613;28;20081;-40
2022/03/14 03:24:07;;;;;;;1.20;0.80;;;;;;;;;;4212389;28;20105;-41
2022/03/14 03:26:08;;;;;;;1.25;0.82;;;;;;;;;;4213447;28;20101;-41
2022/03/14 03:28:09;;;;;;;1.70;1.10;;;;;;;;;;4213193;28;20044;-41
2022/03/14 03:30:10;;;;;;;1.00;0.85;;;;;;;;;;4213442;28;20097;-43
2022/03/14 03:32:12;;;;;;;1.00;0.63;;;;;;;;;;4212806;28;20051;-41
2022/03/14 03:34:13;;;;;;;1.20;0.80;;;;;;;;;;4213526;28;20090;-41
2022/03/14 03:36:14;;;;;;;1.27;0.90;;;;;;;;;;4213417;28;20398;-41
2022/03/14 03:38:15;;;;;;;1.25;0.90;;;;;;;;;;4213272;28;20074;-41
2022/03/14 03:40:16;;;;;;;1.17;0.77;;;;;;;;;;4213539;28;20052;-40
2022/03/14 03:42:18;;;;;;;1.45;0.90;;;;;;;;;;4211782;28;20544;-41
2022/03/14 03:44:18;;;;;;;2.15;1.08;;;;;;;;;;4213125;28;20044;-42
2022/03/14 03:46:19;;;;;;;1.15;0.70;;;;;;;;;;4213003;28;20120;-41
2022/03/14 03:48:21;;;;;;;2.53;0.80;;;;;;;;;;4212918;28;20104;-41
2022/03/14 03:50:21;;;;;;;1.90;0.90;;;;;;;;;;4213119;28;20448;-42
2022/03/14 03:52:22;;;;;;;1.92;1.10;;;;;;;;;;4213170;28;20055;-41
2022/03/14 03:54:23;;;;;;;1.58;1.00;;;;;;;;;;4212924;28;20483;-41
2022/03/14 03:56:24;;;;;;;1.13;0.85;;;;;;;;;;4212927;28;20094;-42
2022/03/14 03:58:25;;;;;;;1.75;0.85;;;;;;;;;;4212635;28;20169;-40
2022/03/14 04:00:26;;;;;;;2.58;0.88;;;;;;;;;;4213407;28;20055;-42
2022/03/14 04:02:27;;;;;;;0.93;0.70;;;;;;;;;;4212718;28;20055;-42
2022/03/14 04:04:28;;;;;;;0.95;0.68;;;;;;;;;;4212879;28;20055;-42
2022/03/14 04:06:30;;;;;;;1.40;0.80;;;;;;;;;;4212911;28;20052;-42
2022/03/14 04:08:32;;;;;;;1.48;0.85;;;;;;;;;;4212775;28;20056;-42
2022/03/14 04:10:33;;;;;;;1.35;1.05;;;;;;;;;;4211194;28;20378;-40
2022/03/14 04:12:34;;;;;;;1.45;1.00;;;;;;;;;;4212858;28;20052;-40
2022/03/14 04:14:38;;;;;;;1.38;0.90;;;;;;;;;;4212988;28;20097;-41
2022/03/14 04:16:40;;;;;;;1.23;0.95;;;;;;;;;;4212975;28;20050;-41
2022/03/14 04:18:42;;;;;;;1.35;0.93;;;;;;;;;;4212524;28;20090;-41
2022/03/14 04:20:43;;;;;;;1.20;1.10;;;;;;;;;;4212629;28;20056;-41
2022/03/14 04:22:44;;;;;;;1.42;0.90;;;;;;;;;;4212572;28;20056;-41
2022/03/14 04:24:45;;;;;;;1.55;1.00;;;;;;;;;;4212895;28;20047;-41
2022/03/14 04:26:47;;;;;;;1.55;0.90;;;;;;;;;;4212500;28;20048;-40
2022/03/14 04:28:50;;;;;;;1.70;1.17;;;;;;;;;;4212880;28;20491;-42
2022/03/14 04:30:51;;;;;;;1.17;0.90;;;;;;;;;;4212778;28;20086;-43
2022/03/14 04:32:52;;;;;;;1.30;0.95;;;;;;;;;;4212225;28;20104;-40
2022/03/14 04:34:53;;;;;;;1.10;0.80;;;;;;;;;;4212541;28;20043;-40
2022/03/14 04:36:54;;;;;;;1.08;0.93;;;;;;;;;;4212534;28;20050;-41
2022/03/14 04:38:55;;;;;;;1.35;0.90;;;;;;;;;;4212645;28;20091;-42
2022/03/14 04:40:56;;;;;;;2.00;1.30;;;;;;;;;;4212576;28;20094;-41
2022/03/14 04:42:56;;;;;;;1.60;1.00;;;;;;;;;;4212825;28;20044;-42
2022/03/14 04:44:57;;;;;;;1.77;1.00;;;;;;;;;;4212836;28;20539;-42
2022/03/14 04:46:58;;;;;;;1.50;1.05;;;;;;;;;;4212348;28;20078;-41
2022/03/14 04:48:59;;;;;;;1.33;0.95;;;;;;;;;;4212573;28;20113;-41
2022/03/14 04:51:00;;;;;;;1.10;0.80;;;;;;;;;;4212704;28;20098;-41
2022/03/14 04:53:02;;;;;;;0.90;0.77;;;;;;;;;;4212631;28;20109;-42
2022/03/14 04:55:03;;;;;;;1.35;1.00;;;;;;;;;;4212478;28;20044;-41
2022/03/14 04:57:04;;;;;;;1.40;1.00;;;;;;;;;;4212501;28;20048;-42
2022/03/14 04:59:05;;;;;;;1.40;0.90;;;;;;;;;;4212775;28;20135;-43
2022/03/14 05:01:06;;;;;;;1.25;1.05;;;;;;;;;;4212731;28;20123;-40
2022/03/14 05:03:07;;;;;;;1.65;1.10;;;;;;;;;;4212202;28;20113;-42
2022/03/14 05:05:11;;;;;;;1.58;0.70;;;;;;;;;;4212478;28;20105;-40
2022/03/14 05:07:14;;;;;;;1.80;0.75;;;;;;;;;;4212546;28;20101;-44
2022/03/14 05:09:15;;;;;;;1.30;1.00;;;;;;;;;;4212691;28;20509;-40
2022/03/14 05:11:16;;;;;;;1.27;1.10;;;;;;;;;;4210736;28;20132;-41
2022/03/14 05:13:17;;;;;;;1.25;1.00;;;;;;;;;;4212658;28;20044;-40
2022/03/14 05:15:18;;;;;;;1.92;1.25;;;;;;;;;;4212350;28;20051;-41
2022/03/14 05:17:19;;;;;;;1.10;0.80;;;;;;;;;;4212256;28;20040;-41
2022/03/14 05:19:20;;;;;;;0.88;0.75;;;;;;;;;;4215458;28;20080;-41
2022/03/14 05:21:21;;;;;;;2.25;0.98;;;;;;;;;;4215624;28;20056;-41
2022/03/14 05:23:24;;;;;;;3.28;1.00;;;;;;;;;;4215226;28;20060;-40
2022/03/14 05:25:26;;;;;;;1.60;1.00;;;;;;;;;;4215089;28;20098;-40
2022/03/14 05:27:27;;;;;;;1.67;1.30;;;;;;;;;;4215174;28;20051;-40
2022/03/14 05:29:29;;;;;;;1.15;1.00;;;;;;;;;;4215270;28;20060;-42
2022/03/14 05:31:30;;;;;;;1.35;0.98;;;;;;;;;;4215298;28;20101;-43
2022/03/14 05:33:31;;;;;;;1.85;1.17;;;;;;;;;;4214713;28;20155;-43
2022/03/14 05:35:32;;;;;;;1.13;1.00;;;;;;;;;;4215051;28;20044;-41
2022/03/14 05:37:33;;;;;;;2.83;1.15;;;;;;;;;;4215242;28;20056;-40
2022/03/14 05:39:34;;;;;;;1.52;0.95;;;;;;;;;;4215158;28;20076;-42
2022/03/14 05:41:35;;;;;;;2.10;1.60;;;;;;;;;;4215229;28;20059;-40
2022/03/14 05:43:37;;;;;;;2.22;1.40;;;;;;;;;;4215176;28;20140;-41
2022/03/14 05:45:37;;;;;;;3.40;1.70;;;;;;;;;;4214916;28;20060;-39
2022/03/14 05:47:39;;;;;;;2.63;1.27;;;;;;;;;;4214331;28;20091;-41
2022/03/14 05:49:40;;;;;;;1.90;1.25;;;;;;;;;;4214878;28;20085;-40
2022/03/14 05:51:41;;;;;;;2.55;1.70;;;;;;;;;;4214543;28;20052;-40
2022/03/14 05:53:42;;;;;;;3.60;2.17;;;;;;;;;;4214661;28;20539;-40
2022/03/14 05:55:43;;;;;;;2.72;1.90;;;;;;;;;;4214397;28;20465;-40
2022/03/14 05:57:45;;;;;;;3.70;1.65;;;;;;;;;;4214667;28;20060;-40
2022/03/14 05:59:45;;;;;;;3.63;2.40;;;;;;;;;;4214556;28;20111;-40
2022/03/14 06:01:50;;;;;;;5.13;2.97;;;;;;;;;;4209773;28;20102;-40
2022/03/14 06:03:53;;;;;;;2.97;2.03;;;;;;;;;;4212297;28;20063;-42
2022/03/14 06:05:54;;;;;;;2.83;2.40;;;;;;;;;;4212368;28;20052;-40
2022/03/14 06:07:54;;;;;;;3.30;2.03;;;;;;;;;;4212112;28;20139;-41
2022/03/14 06:09:56;;;;;;;3.80;1.67;;;;;;;;;;4212077;28;20109;-40
2022/03/14 06:11:57;;;;;;;3.60;2.22;;;;;;;;;;4212077;28;20063;-42
2022/03/14 06:13:58;;;;;;;3.83;2.33;;;;;;;;;;4212510;28;20083;-47
2022/03/14 06:15:59;;;;;;;4.13;2.35;;;;;;;;;;4212108;28;20483;-41
2022/03/14 06:18:00;;;;;;;3.15;2.25;;;;;;;;;;4211757;28;20101;-40
2022/03/14 06:20:01;;;;;;;3.17;1.95;;;;;;;;;;4212122;28;20201;-40
2022/03/14 06:22:02;;;;;;;3.00;2.00;;;;;;;;;;4211947;28;20104;-41
2022/03/14 06:24:03;;;;;;;3.65;2.38;;;;;;;;;;4212052;28;20060;-41
2022/03/14 06:26:04;;;;;;;3.97;2.95;;;;;;;;;;4211791;28;20063;-41
2022/03/14 06:28:05;;;;;;;3.78;2.22;;;;;;;;;;4212101;28;20643;-40
2022/03/14 06:30:07;;;;;;;5.53;2.67;;;;;;;;;;4210804;28;20056;-41
2022/03/14 06:32:08;;;;;;;3.70;2.35;;;;;;;;;;4211549;28;20044;-41
2022/03/14 06:34:09;;;;;;;2.58;2.17;;;;;;;;;;4211645;28;20052;-41
2022/03/14 06:36:10;;;;;;;4.35;2.03;;;;;;;;;;4209172;28;20101;-41
2022/03/14 06:38:11;;;;;;;2.58;2.20;;;;;;;;;;4199800;28;20497;-42
2022/03/14 06:40:12;;;;;;;2.95;2.30;;;;;;;;;;4206823;28;20048;-41
2022/03/14 06:42:14;;;;;;;3.33;2.28;;;;;;;;;;4201869;28;20071;-42
2022/03/14 06:44:15;;;;;;;3.45;2.22;;;;;;;;;;4193401;28;20055;-41
2022/03/14 06:46:17;;;;;;;5.28;2.40;;;;;;;;;;4202581;28;20051;-41
2022/03/14 06:48:21;;;;;;;3.25;2.47;;;;;;;;;;4202396;28;20100;-41
2022/03/14 06:50:23;;;;;;;3.38;2.20;;;;;;;;;;4200865;28;20048;-41
2022/03/14 06:52:24;;;;;;;3.85;2.28;;;;;;;;;;4208526;28;20475;-40
2022/03/14 06:54:26;;;;;;;3.05;2.40;;;;;;;;;;4196126;28;20056;-41
2022/03/14 06:56:27;;;;;;;4.07;2.30;;;;;;;;;;4201211;28;20105;-40
2022/03/14 06:58:29;;;;;;;3.78;2.53;;;;;;;;;;4202432;28;20089;-41
2022/03/14 07:00:32;;;;;;;2.97;2.03;;;;;;;;;;4200097;28;20089;-43
2022/03/14 07:02:34;;;;;;;4.22;2.50;;;;;;;;;;4196757;28;20567;-42
2022/03/14 07:04:36;;;;;;;3.42;2.17;;;;;;;;;;4193136;28;20138;-41
2022/03/14 07:06:37;;;;;;;4.20;2.47;;;;;;;;;;4194365;28;20547;-41
2022/03/14 07:08:38;;;;;;;3.75;2.47;;;;;;;;;;4193999;28;20044;-41
2022/03/14 07:10:39;;;;;;;4.57;2.70;;;;;;;;;;4192534;28;20118;-40
2022/03/14 07:12:48;;;;;;;4.63;2.30;;;;;;;;;;4190074;28;20052;-40
2022/03/14 07:14:49;;;;;;;4.43;2.47;;;;;;;;;;4186373;28;20633;-40
2022/03/14 07:16:50;;;;;;;5.55;2.63;;;;;;;;;;4187150;28;20141;-40
2022/03/14 07:18:53;;;;;;;5.60;2.55;;;;;;;;;;4183150;28;20052;-43
2022/03/14 07:20:55;;;;;;;2.60;2.22;;;;;;;;;;4187760;28;20105;-42
2022/03/14 07:23:00;;;;;;;3.78;2.40;;;;;;;;;;4187496;28;20066;-44
2022/03/14 07:25:02;;;;;;;6.45;2.65;;;;;;;;;;4187974;28;20093;-42
2022/03/14 07:27:03;;;;;;;3.25;2.22;;;;;;;;;;4189072;28;20778;-43
2022/03/14 07:29:04;;;;;;;3.88;2.70;;;;;;;;;;4177992;28;20110;-44
2022/03/14 07:31:05;;;;;;;4.38;2.80;;;;;;;;;;4176478;28;21013;-44
2022/03/14 07:33:06;;;;;;;4.38;2.53;;;;;;;;;;4180306;28;20047;-43
2022/03/14 07:35:09;;;;;;;7.15;3.03;;;;;;;;;;4190165;28;20106;-43
2022/03/14 07:37:10;;;;;;;5.13;3.00;;;;;;;;;;4193483;28;20043;-41
2022/03/14 07:39:11;;;;;;;5.72;2.63;;;;;;;;;;4192902;28;20354;-42
2022/03/14 07:41:12;;;;;;;9.40;3.15;;;;;;;;;;4195281;28;20142;-42
2022/03/14 07:43:13;;;;;;;8.23;2.70;;;;;;;;;;4189096;28;20048;-44
2022/03/14 07:45:16;;;;;;;10.15;3.28;;;;;;;;;;4189145;28;20270;-43
2022/03/14 07:47:17;;;;;;;5.65;2.72;;;;;;;;;;4183961;28;20495;-44
2022/03/14 07:49:20;;;;;;;6.32;2.95;;;;;;;;;;4192365;28;20176;-43
2022/03/14 07:51:21;;;;;;;7.70;2.85;;;;;;;;;;4187865;28;20051;-44
2022/03/14 07:53:22;;;;;;;6.63;2.83;;;;;;;;;;4186006;28;20143;-43
2022/03/14 07:55:24;;;;;;;7.53;2.80;;;;;;;;;;4188292;28;20063;-44
2022/03/14 07:57:25;;;;;;;6.32;3.38;;;;;;;;;;4173453;28;20048;-43
2022/03/14 07:59:26;;;;;;;5.47;2.83;;;;;;;;;;4187971;28;20509;-42
2022/03/14 08:01:27;;;;;;;8.88;2.88;;;;;;;;;;4175571;28;20719;-43
2022/03/14 08:03:27;;;;;;;6.35;2.92;;;;;;;;;;4176762;28;20469;-42
2022/03/14 08:05:28;;;;;;;6.97;2.78;;;;;;;;;;4163912;28;20412;-44
2022/03/14 08:07:29;;;;;;;5.63;2.97;;;;;;;;;;4167075;28;20056;-44
2022/03/14 08:09:30;;;;;;;6.93;3.03;;;;;;;;;;4179129;28;20101;-42
2022/03/14 08:11:32;;;;;;;3.50;2.67;;;;;;;;;;4182870;28;20052;-44
2022/03/14 08:13:34;;;;;;;7.05;2.40;;;;;;;;;;4180172;28;20052;-43
2022/03/14 08:15:38;;;;;;;7.55;2.72;;;;;;;;;;4176225;28;21011;-42
2022/03/14 08:17:39;;;;;;;11.07;2.67;;;;;;;;;;4177707;28;20144;-43
2022/03/14 08:19:40;;;;;;;7.20;3.33;;;;;;;;;;4182904;28;20053;-44
2022/03/14 08:21:41;;;;;;;5.90;2.60;;;;;;;;;;4182694;28;20451;-44
2022/03/14 08:23:42;;;;;;;6.47;2.78;;;;;;;;;;4188932;28;20054;-42
2022/03/14 08:25:42;;;;;;;3.47;2.50;;;;;;;;;;4182592;28;20085;-44
2022/03/14 08:27:43;;;;;;;6.60;2.95;;;;;;;;;;4183151;28;20058;-44
2022/03/14 08:29:44;;;;;;;5.47;3.10;;;;;;;;;;4182448;28;20056;-43
2022/03/14 08:31:45;;;;;;;6.25;3.10;;;;;;;;;;4184863;28;20106;-44
2022/03/14 08:33:46;;;;;;;5.25;2.70;;;;;;;;;;4184467;28;20155;-40
2022/03/14 08:35:47;;;;;;;5.32;2.35;;;;;;;;;;4185359;28;20052;-44
2022/03/14 08:37:50;;;;;;;5.53;2.92;;;;;;;;;;4183193;28;20047;-44
2022/03/14 08:39:51;;;;;;;3.92;2.50;;;;;;;;;;4181043;28;20151;-44
2022/03/14 08:41:52;;;;;;;4.53;2.38;;;;;;;;;;4175435;28;20092;-44
2022/03/14 08:43:52;;;;;;;4.03;2.17;;;;;;;;;;4181347;28;20062;-44
2022/03/14 08:45:54;;;;;;;5.50;2.30;;;;;;;;;;4177956;28;20105;-43
2022/03/14 08:47:57;;;;;;;3.67;2.30;;;;;;;;;;4177574;28;20852;-44
2022/03/14 08:49:58;;;;;;;5.40;2.30;;;;;;;;;;4177973;28;20056;-42
2022/03/14 08:51:59;;;;;;;4.70;2.53;;;;;;;;;;4185093;28;20895;-43
2022/03/14 08:54:00;;;;;;;5.78;2.30;;;;;;;;;;4189815;28;20495;-43
2022/03/14 08:56:03;;;;;;;3.08;2.00;;;;;;;;;;4188056;28;20052;-43
2022/03/14 08:58:04;;;;;;;5.68;1.98;;;;;;;;;;4184221;28;20086;-44
2022/03/14 09:00:07;;;;;;;5.80;2.65;;;;;;;;;;4188409;28;20593;-43
2022/03/14 09:02:10;;;;;;;3.97;2.15;;;;;;;;;;4176760;28;20151;-44
2022/03/14 09:04:12;;;;;;;4.25;2.20;;;;;;;;;;4181342;28;20688;-44
2022/03/14 09:06:13;;;;;;;4.60;2.10;;;;;;;;;;4168638;28;20485;-42
2022/03/14 09:08:15;;;;;;;5.38;2.10;;;;;;;;;;4181074;28;20055;-42
2022/03/14 09:10:17;;;;;;;3.67;2.22;;;;;;;;;;4189682;28;20056;-43
2022/03/14 09:12:19;;;;;;;7.57;2.25;;;;;;;;;;4183467;28;20067;-43
2022/03/14 09:14:20;;;;;;;4.35;2.00;;;;;;;;;;4184079;28;21408;-44
2022/03/14 09:16:22;;;;;;;3.42;1.75;;;;;;;;;;4188076;28;20133;-43
2022/03/14 09:18:27;;;;;;;3.30;2.20;;;;;;;;;;4186703;28;20140;-42
2022/03/14 09:20:28;;;;;;;4.30;1.80;;;;;;;;;;4185051;28;20081;-43
2022/03/14 09:22:29;;;;;;;3.08;1.42;;;;;;;;;;4190837;28;20173;-41
2022/03/14 09:24:30;;;;;;;3.55;1.90;;;;;;;;;;4187470;28;20396;-43
2022/03/14 09:26:32;;;;;;;4.85;1.90;;;;;;;;;;4187317;28;20114;-43
2022/03/14 09:28:34;;;;;;;3.38;1.60;;;;;;;;;;4188452;28;20582;-43
2022/03/14 09:30:35;;;;;;;3.47;2.08;;;;;;;;;;4189570;28;20044;-42
2022/03/14 09:32:36;;;;;;;4.10;1.80;;;;;;;;;;4189956;28;20619;-43
2022/03/14 09:34:37;;;;;;;3.55;1.73;;;;;;;;;;4188951;28;20492;-43
2022/03/14 09:36:37;;;;;;;3.55;1.83;;;;;;;;;;4187404;28;20105;-44
2022/03/14 09:38:38;;;;;;;1.92;1.50;;;;;;;;;;4185450;28;20059;-43
2022/03/14 09:40:41;;;;;;;3.95;1.70;;;;;;;;;;4191416;28;20120;-42
2022/03/14 09:42:48;;;;;;;3.50;1.77;;;;;;;;;;4188293;28;20052;-42
2022/03/14 09:44:53;;;;;;;2.83;1.85;;;;;;;;;;4193761;28;20053;-43
2022/03/14 09:46:55;;;;;;;2.53;1.60;;;;;;;;;;4191597;28;20053;-41
2022/03/14 09:48:58;;;;;;;3.08;1.83;;;;;;;;;;4191928;28;20049;-44
2022/03/14 09:51:00;;;;;;;3.05;2.08;;;;;;;;;;4188336;28;20177;-43
2022/03/14 09:53:08;;;;;;;3.97;2.00;;;;;;;;;;4180578;28;20051;-43
2022/03/14 09:55:10;;;;;;;2.75;1.77;;;;;;;;;;4176932;28;20133;-43
2022/03/14 09:57:11;;;;;;;4.07;1.77;;;;;;;;;;4182771;28;20064;-44
2022/03/14 09:59:12;;;;;;;4.75;2.75;;;;;;;;;;4176420;28;20053;-45
2022/03/14 10:01:14;;;;;;;2.60;2.00;;;;;;;;;;4174926;28;20060;-44
2022/03/14 10:03:15;;;;;;;3.25;1.90;;;;;;;;;;4174458;28;20288;-44
2022/03/14 10:05:17;;;;;;;3.55;1.92;;;;;;;;;;4174630;28;21383;-46
2022/03/14 10:07:18;;;;;;;2.85;2.13;;;;;;;;;;4180395;28;20060;-45
2022/03/14 10:09:19;;;;;;;4.38;2.13;;;;;;;;;;4182137;28;20495;-43
2022/03/14 10:11:20;;;;;;;3.05;2.08;;;;;;;;;;4177497;28;20059;-46
2022/03/14 10:13:20;;;;;;;3.08;2.05;;;;;;;;;;4185283;28;20131;-47
2022/03/14 10:15:22;;;;;;;3.05;1.70;;;;;;;;;;4185741;28;20120;-47
2022/03/14 10:17:24;;;;;;;4.97;2.10;;;;;;;;;;4188801;28;20070;-46
2022/03/14 10:19:48;;;;;;;3.20;2.15;;;;;;;;;;4189746;28;20052;-46
2022/03/14 10:21:52;;;;;;;2.50;1.70;;;;;;;;;;4183896;28;20052;-45
2022/03/14 10:23:53;;;;;;;2.60;1.95;;;;;;;;;;4195570;28;20060;-45
2022/03/14 10:25:56;;;;;;;4.43;2.08;;;;;;;;;;4184625;28;20656;-45
2022/03/14 10:27:57;;;;;;;3.40;2.05;;;;;;;;;;4189792;28;20058;-46
2022/03/14 10:29:58;;;;;;;3.47;2.03;;;;;;;;;;4180778;28;21098;-45
2022/03/14 10:32:00;;;;;;;4.22;2.00;;;;;;;;;;4184824;28;20056;-46
2022/03/14 10:34:07;;;;;;;3.33;2.10;;;;;;;;;;4183452;28;20051;-47
2022/03/14 10:36:08;;;;;;;3.10;1.95;;;;;;;;;;4182161;28;20663;-46
2022/03/14 10:38:10;;;;;;;5.75;2.47;;;;;;;;;;4182902;27;20102;-47
2022/03/14 10:40:11;;;;;;;3.80;2.08;;;;;;;;;;4190863;28;20222;-46
2022/03/14 10:42:13;;;;;;;4.80;2.38;;;;;;;;;;4191192;28;20055;-46
2022/03/14 10:44:22;;;;;;;3.95;2.03;;;;;;;;;;4190327;28;20568;-47
2022/03/14 10:46:26;;;;;;;8.13;2.22;;;;;;;;;;4184111;28;20048;-45
2022/03/14 10:48:33;;;;;;;3.47;2.53;;;;;;;;;;4185414;28;20145;-45
2022/03/14 10:50:35;;;;;;;3.47;2.20;;;;;;;;;;4188419;28;20113;-45
2022/03/14 10:52:35;;;;;;;3.63;2.10;;;;;;;;;;4187730;28;20794;-47
2022/03/14 10:54:37;;;;;;;3.35;2.00;;;;;;;;;;4185408;28;20097;-45
2022/03/14 10:56:38;;;;;;;4.50;2.40;;;;;;;;;;4186417;28;20097;-45
2022/03/14 10:58:39;;;;;;;3.58;2.55;;;;;;;;;;4186534;28;20052;-46
2022/03/14 11:00:53;;;;;;;5.93;2.47;;;;;;;;;;4185116;28;20093;-45
2022/03/14 11:03:03;;;;;;;3.90;2.50;;;;;;;;;;4186153;28;21873;-46
2022/03/14 11:05:05;;;;;;;3.03;1.90;;;;;;;;;;4192448;28;20098;-46
2022/03/14 11:07:07;;;;;;;3.15;2.28;;;;;;;;;;4191088;28;20059;-47
2022/03/14 11:09:08;;;;;;;3.05;2.35;;;;;;;;;;4188952;28;20471;-47
2022/03/14 11:11:10;;;;;;;3.55;2.35;;;;;;;;;;4189229;28;20051;-48
2022/03/14 11:13:12;;;;;;;3.60;2.72;;;;;;;;;;4186796;28;20056;-47
2022/03/14 11:15:13;;;;;;;3.63;2.50;;;;;;;;;;4191773;28;20049;-47
2022/03/14 11:17:15;;;;;;;2.90;2.47;;;;;;;;;;4187357;28;20060;-47
2022/03/14 11:19:16;;;;;;;5.10;2.78;;;;;;;;;;4189949;28;20183;-46
2022/03/14 11:21:21;;;;;;;5.30;2.97;;;;;;;;;;4193688;28;20063;-45
2022/03/14 11:23:22;;;;;;;4.50;3.20;;;;;;;;;;4196934;28;20559;-45
2022/03/14 11:25:23;;;;;;;3.50;2.97;;;;;;;;;;4198674;28;20105;-46
2022/03/14 11:27:25;;;;;;;5.70;3.40;;;;;;;;;;4188589;28;20087;-46
2022/03/14 11:29:27;;;;;;;3.78;3.33;;;;;;;;;;4195045;28;20077;-48
2022/03/14 11:31:28;;;;;;;5.82;3.15;;;;;;;;;;4188141;28;21666;-47
2022/03/14 11:33:30;;;;;;;4.22;3.33;;;;;;;;;;4196639;28;20074;-47
2022/03/14 11:35:31;;;;;;;6.10;3.70;;;;;;;;;;4198206;28;20231;-49
2022/03/14 11:37:32;;;;;;;5.35;3.83;;;;;;;;;;4201265;28;20121;-47
2022/03/14 11:39:33;;;;;;;5.35;4.07;;;;;;;;;;4194915;28;20096;-47
2022/03/14 11:41:34;;;;;;;5.82;4.18;;;;;;;;;;4197023;28;20056;-48
2022/03/14 11:43:37;;;;;;;5.95;4.63;;;;;;;;;;4193174;28;20056;-47
2022/03/14 11:45:39;;;;;;;4.43;4.00;;;;;;;;;;4175353;28;20110;-48
2022/03/14 11:47:40;;;;;;;5.53;4.22;;;;;;;;;;4184061;28;20055;-46
2022/03/14 11:49:41;;;;;;;5.45;4.80;;;;;;;;;;4182045;28;20083;-46
2022/03/14 11:51:43;;;;;;;6.70;5.03;;;;;;;;;;4185413;28;20583;-45
2022/03/14 11:53:48;;;;;;;5.90;4.72;;;;;;;;;;4181826;28;20449;-43
2022/03/14 11:55:51;;;;;;;6.07;4.28;;;;;;;;;;4189775;28;20049;-44
2022/03/14 11:57:52;;;;;;;6.03;4.88;;;;;;;;;;4182900;28;20644;-47
2022/03/14 11:59:53;;;;;;;5.78;4.55;;;;;;;;;;4183684;28;20060;-45
2022/03/14 12:01:58;;;;;;;5.60;4.95;;;;;;;;;;4174422;28;21003;-46
2022/03/14 12:04:00;;;;;;;7.47;4.78;;;;;;;;;;4182440;28;20651;-44
2022/03/14 12:06:00;;;;;;;6.22;4.80;;;;;;;;;;4177395;28;20055;-46
2022/03/14 12:08:22;;;;;;;5.38;4.53;;;;;;;;;;4190318;28;20109;-46
2022/03/14 12:10:27;;;;;;;6.32;4.97;;;;;;;;;;4174140;28;20137;-46